sensor_id;sensor_type;location;lat;lon;timestamp;temperature;humidity
21246;DHT22;10781;50.928;4.440;2024-01-30T00:01:39;12.40;99.90
21246;DHT22;10781;50.928;4.440;2024-01-30T00:04:05;12.40;99.90
21246;DHT22;10781;50.928;4.440;2024-01-30T00:06:31;12.60;99.90
21246;DHT22;10781;50.928;4.440;2024-01-30T00:08:57;12.60;99.90
21246;DHT22;10781;50.928;4.440;2024-01-30T00:11:22;12.60;99.90
21246;DHT22;10781;50.928;4.440;2024-01-30T00:13:53;12.60;99.90
21246;DHT22;10781;50.928;4.440;2024-01-30T00:16:24;12.70;99.90
21246;DHT22;10781;50.928;4.440;2024-01-30T00:18:53;12.60;99.90
21246;DHT22;10781;50.928;4.440;2024-01-30T00:21:19;12.70;99.90
21246;DHT22;10781;50.928;4.440;2024-01-30T00:23:45;12.50;99.90
21246;DHT22;10781;50.928;4.440;2024-01-30T00:26:11;12.60;99.90
21246;DHT22;10781;50.928;4.440;2024-01-30T00:28:38;12.60;99.90
21246;DHT22;10781;50.928;4.440;2024-01-30T00:31:04;12.60;99.90
21246;DHT22;10781;50.928;4.440;2024-01-30T00:33:30;12.50;99.90
21246;DHT22;10781;50.928;4.440;2024-01-30T00:35:56;12.60;99.90
21246;DHT22;10781;50.928;4.440;2024-01-30T00:38:22;12.60;99.90
21246;DHT22;10781;50.928;4.440;2024-01-30T00:40:48;12.60;99.90
21246;DHT22;10781;50.928;4.440;2024-01-30T00:43:14;12.60;99.90
21246;DHT22;10781;50.928;4.440;2024-01-30T00:45:40;12.60;99.90
21246;DHT22;10781;50.928;4.440;2024-01-30T00:48:06;12.60;99.90
21246;DHT22;10781;50.928;4.440;2024-01-30T00:50:32;12.60;99.90
21246;DHT22;10781;50.928;4.440;2024-01-30T00:52:57;12.60;99.90
21246;DHT22;10781;50.928;4.440;2024-01-30T00:55:23;12.70;99.90
21246;DHT22;10781;50.928;4.440;2024-01-30T00:57:49;12.70;99.90
21246;DHT22;10781;50.928;4.440;2024-01-30T01:00:14;12.70;99.90
21246;DHT22;10781;50.928;4.440;2024-01-30T01:02:43;12.80;99.90
21246;DHT22;10781;50.928;4.440;2024-01-30T01:05:10;12.80;99.90
21246;DHT22;10781;50.928;4.440;2024-01-30T01:07:36;12.80;99.90
21246;DHT22;10781;50.928;4.440;2024-01-30T01:10:02;12.80;99.90
21246;DHT22;10781;50.928;4.440;2024-01-30T01:12:28;12.80;99.90
21246;DHT22;10781;50.928;4.440;2024-01-30T01:14:53;12.80;99.90
21246;DHT22;10781;50.928;4.440;2024-01-30T01:17:19;12.80;99.90
21246;DHT22;10781;50.928;4.440;2024-01-30T01:19:45;12.70;99.90
21246;DHT22;10781;50.928;4.440;2024-01-30T01:22:11;12.80;99.90
21246;DHT22;10781;50.928;4.440;2024-01-30T01:24:36;12.90;99.90
21246;DHT22;10781;50.928;4.440;2024-01-30T01:27:02;12.90;99.90
21246;DHT22;10781;50.928;4.440;2024-01-30T01:29:28;13.00;99.90
21246;DHT22;10781;50.928;4.440;2024-01-30T01:31:55;13.00;99.90
21246;DHT22;10781;50.928;4.440;2024-01-30T01:34:21;13.00;99.90
21246;DHT22;10781;50.928;4.440;2024-01-30T01:36:47;13.00;99.90
21246;DHT22;10781;50.928;4.440;2024-01-30T01:39:13;13.00;99.90
21246;DHT22;10781;50.928;4.440;2024-01-30T01:41:38;12.90;99.90
21246;DHT22;10781;50.928;4.440;2024-01-30T01:44:04;12.80;99.90
21246;DHT22;10781;50.928;4.440;2024-01-30T01:46:32;12.90;99.90
21246;DHT22;10781;50.928;4.440;2024-01-30T01:48:58;12.90;99.90
21246;DHT22;10781;50.928;4.440;2024-01-30T01:51:27;12.90;99.90
21246;DHT22;10781;50.928;4.440;2024-01-30T01:53:57;13.00;99.90
21246;DHT22;10781;50.928;4.440;2024-01-30T01:56:24;13.00;99.90
21246;DHT22;10781;50.928;4.440;2024-01-30T01:58:55;13.10;99.90
21246;DHT22;10781;50.928;4.440;2024-01-30T02:01:21;13.20;99.90
21246;DHT22;10781;50.928;4.440;2024-01-30T02:03:47;13.10;99.90
21246;DHT22;10781;50.928;4.440;2024-01-30T02:06:16;13.10;99.90
21246;DHT22;10781;50.928;4.440;2024-01-30T02:08:43;13.10;99.90
21246;DHT22;10781;50.928;4.440;2024-01-30T02:11:08;13.10;99.90
21246;DHT22;10781;50.928;4.440;2024-01-30T02:13:36;13.10;99.90
21246;DHT22;10781;50.928;4.440;2024-01-30T02:16:01;13.00;99.90
21246;DHT22;10781;50.928;4.440;2024-01-30T02:18:27;13.10;99.90
21246;DHT22;10781;50.928;4.440;2024-01-30T02:20:54;13.00;99.90
21246;DHT22;10781;50.928;4.440;2024-01-30T02:23:23;13.10;99.90
21246;DHT22;10781;50.928;4.440;2024-01-30T02:25:49;13.10;99.90
21246;DHT22;10781;50.928;4.440;2024-01-30T02:28:15;13.20;99.90
21246;DHT22;10781;50.928;4.440;2024-01-30T02:30:43;13.20;99.90
21246;DHT22;10781;50.928;4.440;2024-01-30T02:33:08;13.10;99.90
21246;DHT22;10781;50.928;4.440;2024-01-30T02:35:34;13.20;99.90
21246;DHT22;10781;50.928;4.440;2024-01-30T02:38:00;13.20;99.90
21246;DHT22;10781;50.928;4.440;2024-01-30T02:40:26;13.10;99.90
21246;DHT22;10781;50.928;4.440;2024-01-30T02:42:51;13.00;99.90
21246;DHT22;10781;50.928;4.440;2024-01-30T02:45:17;13.00;99.90
21246;DHT22;10781;50.928;4.440;2024-01-30T02:47:43;12.90;99.90
21246;DHT22;10781;50.928;4.440;2024-01-30T02:50:09;12.80;99.90
21246;DHT22;10781;50.928;4.440;2024-01-30T02:52:34;12.90;99.90
21246;DHT22;10781;50.928;4.440;2024-01-30T02:55:00;13.10;99.90
21246;DHT22;10781;50.928;4.440;2024-01-30T02:57:26;13.20;99.90
21246;DHT22;10781;50.928;4.440;2024-01-30T02:59:52;13.20;99.90
21246;DHT22;10781;50.928;4.440;2024-01-30T03:02:17;13.20;99.90
21246;DHT22;10781;50.928;4.440;2024-01-30T03:04:43;13.10;99.90
21246;DHT22;10781;50.928;4.440;2024-01-30T03:07:09;13.30;99.90
21246;DHT22;10781;50.928;4.440;2024-01-30T03:09:36;13.20;99.90
21246;DHT22;10781;50.928;4.440;2024-01-30T03:12:02;13.10;99.90
21246;DHT22;10781;50.928;4.440;2024-01-30T03:14:29;13.10;99.90
21246;DHT22;10781;50.928;4.440;2024-01-30T03:16:55;13.30;99.90
21246;DHT22;10781;50.928;4.440;2024-01-30T03:19:20;13.20;99.90
21246;DHT22;10781;50.928;4.440;2024-01-30T03:21:46;13.10;99.90
21246;DHT22;10781;50.928;4.440;2024-01-30T03:24:11;13.20;99.90
21246;DHT22;10781;50.928;4.440;2024-01-30T03:26:37;13.20;99.90
21246;DHT22;10781;50.928;4.440;2024-01-30T03:29:03;13.20;99.90
21246;DHT22;10781;50.928;4.440;2024-01-30T03:31:28;13.20;99.90
21246;DHT22;10781;50.928;4.440;2024-01-30T03:33:54;13.20;99.90
21246;DHT22;10781;50.928;4.440;2024-01-30T03:36:20;13.20;99.90
21246;DHT22;10781;50.928;4.440;2024-01-30T03:38:45;13.20;99.90
21246;DHT22;10781;50.928;4.440;2024-01-30T03:41:11;13.20;99.90
21246;DHT22;10781;50.928;4.440;2024-01-30T03:43:37;13.40;99.90
21246;DHT22;10781;50.928;4.440;2024-01-30T03:46:03;13.40;99.90
21246;DHT22;10781;50.928;4.440;2024-01-30T03:48:29;13.40;99.90
21246;DHT22;10781;50.928;4.440;2024-01-30T03:50:55;13.30;99.90
21246;DHT22;10781;50.928;4.440;2024-01-30T03:53:21;13.20;99.90
21246;DHT22;10781;50.928;4.440;2024-01-30T03:55:47;13.20;99.90
21246;DHT22;10781;50.928;4.440;2024-01-30T03:58:12;13.20;99.90
21246;DHT22;10781;50.928;4.440;2024-01-30T04:00:38;13.30;99.90
21246;DHT22;10781;50.928;4.440;2024-01-30T04:03:04;13.20;99.90
21246;DHT22;10781;50.928;4.440;2024-01-30T04:05:29;13.30;99.90
21246;DHT22;10781;50.928;4.440;2024-01-30T04:07:55;13.30;99.90
21246;DHT22;10781;50.928;4.440;2024-01-30T04:10:21;13.30;99.90
21246;DHT22;10781;50.928;4.440;2024-01-30T04:12:47;13.30;99.90
21246;DHT22;10781;50.928;4.440;2024-01-30T04:15:12;13.30;99.90
21246;DHT22;10781;50.928;4.440;2024-01-30T04:17:39;13.40;99.90
21246;DHT22;10781;50.928;4.440;2024-01-30T04:20:05;13.40;99.90
21246;DHT22;10781;50.928;4.440;2024-01-30T04:22:31;13.30;99.90
21246;DHT22;10781;50.928;4.440;2024-01-30T04:24:57;13.30;99.90
21246;DHT22;10781;50.928;4.440;2024-01-30T04:27:22;13.20;99.90
21246;DHT22;10781;50.928;4.440;2024-01-30T04:29:48;13.30;99.90
21246;DHT22;10781;50.928;4.440;2024-01-30T04:32:14;13.20;99.90
21246;DHT22;10781;50.928;4.440;2024-01-30T04:34:40;13.20;99.90
21246;DHT22;10781;50.928;4.440;2024-01-30T04:37:06;13.30;99.90
21246;DHT22;10781;50.928;4.440;2024-01-30T04:39:33;13.20;99.90
21246;DHT22;10781;50.928;4.440;2024-01-30T04:41:58;13.30;99.90
21246;DHT22;10781;50.928;4.440;2024-01-30T04:44:24;13.10;99.90
21246;DHT22;10781;50.928;4.440;2024-01-30T04:46:50;13.10;99.90
21246;DHT22;10781;50.928;4.440;2024-01-30T04:49:16;13.20;99.90
21246;DHT22;10781;50.928;4.440;2024-01-30T04:51:41;13.20;99.90
21246;DHT22;10781;50.928;4.440;2024-01-30T04:54:08;13.30;99.90
21246;DHT22;10781;50.928;4.440;2024-01-30T04:56:33;13.10;99.90
21246;DHT22;10781;50.928;4.440;2024-01-30T04:59:02;13.00;99.90
21246;DHT22;10781;50.928;4.440;2024-01-30T05:01:28;13.10;99.90
21246;DHT22;10781;50.928;4.440;2024-01-30T05:03:53;13.10;99.90
21246;DHT22;10781;50.928;4.440;2024-01-30T05:06:26;13.20;99.90
21246;DHT22;10781;50.928;4.440;2024-01-30T05:08:52;13.30;99.90
21246;DHT22;10781;50.928;4.440;2024-01-30T05:11:17;13.30;99.90
21246;DHT22;10781;50.928;4.440;2024-01-30T05:13:43;13.30;99.90
21246;DHT22;10781;50.928;4.440;2024-01-30T05:16:08;13.30;99.90
21246;DHT22;10781;50.928;4.440;2024-01-30T05:18:34;13.20;99.90
21246;DHT22;10781;50.928;4.440;2024-01-30T05:21:00;13.30;99.90
21246;DHT22;10781;50.928;4.440;2024-01-30T05:23:25;13.20;99.90
21246;DHT22;10781;50.928;4.440;2024-01-30T05:25:51;13.30;99.90
21246;DHT22;10781;50.928;4.440;2024-01-30T05:28:17;13.20;99.90
21246;DHT22;10781;50.928;4.440;2024-01-30T05:30:42;13.30;99.90
21246;DHT22;10781;50.928;4.440;2024-01-30T05:33:08;13.20;99.90
21246;DHT22;10781;50.928;4.440;2024-01-30T05:35:35;13.20;99.90
21246;DHT22;10781;50.928;4.440;2024-01-30T05:38:00;13.20;99.90
21246;DHT22;10781;50.928;4.440;2024-01-30T05:40:26;13.20;99.90
21246;DHT22;10781;50.928;4.440;2024-01-30T05:42:52;13.30;99.90
21246;DHT22;10781;50.928;4.440;2024-01-30T05:45:18;13.40;99.90
21246;DHT22;10781;50.928;4.440;2024-01-30T05:47:44;13.40;99.90
21246;DHT22;10781;50.928;4.440;2024-01-30T05:50:09;13.50;99.90
21246;DHT22;10781;50.928;4.440;2024-01-30T05:52:35;13.40;99.90
21246;DHT22;10781;50.928;4.440;2024-01-30T05:55:01;13.50;99.90
21246;DHT22;10781;50.928;4.440;2024-01-30T05:57:26;13.40;99.90
21246;DHT22;10781;50.928;4.440;2024-01-30T05:59:52;13.60;99.90
21246;DHT22;10781;50.928;4.440;2024-01-30T06:02:18;13.70;99.90
21246;DHT22;10781;50.928;4.440;2024-01-30T06:04:43;13.70;99.90
21246;DHT22;10781;50.928;4.440;2024-01-30T06:07:10;13.70;99.90
21246;DHT22;10781;50.928;4.440;2024-01-30T06:09:35;13.60;99.90
21246;DHT22;10781;50.928;4.440;2024-01-30T06:12:01;13.40;99.90
21246;DHT22;10781;50.928;4.440;2024-01-30T06:14:26;13.30;99.90
21246;DHT22;10781;50.928;4.440;2024-01-30T06:16:52;13.30;99.90
21246;DHT22;10781;50.928;4.440;2024-01-30T06:19:18;13.30;99.90
21246;DHT22;10781;50.928;4.440;2024-01-30T06:21:44;13.30;99.90
21246;DHT22;10781;50.928;4.440;2024-01-30T06:24:10;13.30;99.90
21246;DHT22;10781;50.928;4.440;2024-01-30T06:26:36;13.20;99.90
21246;DHT22;10781;50.928;4.440;2024-01-30T06:29:01;13.10;99.90
21246;DHT22;10781;50.928;4.440;2024-01-30T06:31:27;13.20;99.90
21246;DHT22;10781;50.928;4.440;2024-01-30T06:33:53;13.20;99.90
21246;DHT22;10781;50.928;4.440;2024-01-30T06:36:18;13.10;99.90
21246;DHT22;10781;50.928;4.440;2024-01-30T06:38:44;13.10;99.90
21246;DHT22;10781;50.928;4.440;2024-01-30T06:41:10;13.10;99.90
21246;DHT22;10781;50.928;4.440;2024-01-30T06:43:36;13.20;99.90
21246;DHT22;10781;50.928;4.440;2024-01-30T06:46:01;13.20;99.90
21246;DHT22;10781;50.928;4.440;2024-01-30T06:48:27;13.30;99.90
21246;DHT22;10781;50.928;4.440;2024-01-30T06:50:53;13.20;99.90
21246;DHT22;10781;50.928;4.440;2024-01-30T06:53:19;13.20;99.90
21246;DHT22;10781;50.928;4.440;2024-01-30T06:55:45;13.10;99.90
21246;DHT22;10781;50.928;4.440;2024-01-30T06:58:11;13.10;99.90
21246;DHT22;10781;50.928;4.440;2024-01-30T07:00:37;13.10;99.90
21246;DHT22;10781;50.928;4.440;2024-01-30T07:03:03;13.30;99.90
21246;DHT22;10781;50.928;4.440;2024-01-30T07:05:28;13.30;99.90
21246;DHT22;10781;50.928;4.440;2024-01-30T07:07:54;13.40;99.90
21246;DHT22;10781;50.928;4.440;2024-01-30T07:10:20;13.40;99.90
21246;DHT22;10781;50.928;4.440;2024-01-30T07:12:45;13.30;99.90
21246;DHT22;10781;50.928;4.440;2024-01-30T07:15:11;13.30;99.90
21246;DHT22;10781;50.928;4.440;2024-01-30T07:17:37;13.10;99.90
21246;DHT22;10781;50.928;4.440;2024-01-30T07:20:03;13.20;99.90
21246;DHT22;10781;50.928;4.440;2024-01-30T07:22:30;13.20;99.90
21246;DHT22;10781;50.928;4.440;2024-01-30T07:24:56;13.20;99.90
21246;DHT22;10781;50.928;4.440;2024-01-30T07:27:22;13.30;99.90
21246;DHT22;10781;50.928;4.440;2024-01-30T07:29:47;13.10;99.90
21246;DHT22;10781;50.928;4.440;2024-01-30T07:32:13;13.10;99.90
21246;DHT22;10781;50.928;4.440;2024-01-30T07:34:39;12.90;99.90
21246;DHT22;10781;50.928;4.440;2024-01-30T07:37:04;13.00;99.90
21246;DHT22;10781;50.928;4.440;2024-01-30T07:39:30;13.00;99.90
21246;DHT22;10781;50.928;4.440;2024-01-30T07:41:56;13.10;99.90
21246;DHT22;10781;50.928;4.440;2024-01-30T07:44:22;13.00;99.90
21246;DHT22;10781;50.928;4.440;2024-01-30T07:46:47;13.00;99.90
21246;DHT22;10781;50.928;4.440;2024-01-30T07:49:13;12.90;99.90
21246;DHT22;10781;50.928;4.440;2024-01-30T07:51:39;12.80;99.90
21246;DHT22;10781;50.928;4.440;2024-01-30T07:54:14;12.70;99.90
21246;DHT22;10781;50.928;4.440;2024-01-30T07:56:40;12.70;99.90
21246;DHT22;10781;50.928;4.440;2024-01-30T07:59:10;12.70;99.90
21246;DHT22;10781;50.928;4.440;2024-01-30T08:01:35;12.70;99.90
21246;DHT22;10781;50.928;4.440;2024-01-30T08:04:01;12.70;99.90
21246;DHT22;10781;50.928;4.440;2024-01-30T08:06:26;12.80;99.90
21246;DHT22;10781;50.928;4.440;2024-01-30T08:08:52;12.70;99.90
21246;DHT22;10781;50.928;4.440;2024-01-30T08:11:20;12.70;99.90
21246;DHT22;10781;50.928;4.440;2024-01-30T08:13:51;12.90;99.90
21246;DHT22;10781;50.928;4.440;2024-01-30T08:16:17;12.80;99.90
21246;DHT22;10781;50.928;4.440;2024-01-30T08:18:43;12.80;99.90
21246;DHT22;10781;50.928;4.440;2024-01-30T08:21:09;13.00;99.90
21246;DHT22;10781;50.928;4.440;2024-01-30T08:23:35;13.10;99.90
21246;DHT22;10781;50.928;4.440;2024-01-30T08:26:00;13.20;99.90
21246;DHT22;10781;50.928;4.440;2024-01-30T08:28:26;13.30;99.90
21246;DHT22;10781;50.928;4.440;2024-01-30T08:30:52;13.30;99.90
21246;DHT22;10781;50.928;4.440;2024-01-30T08:33:18;13.20;99.90
21246;DHT22;10781;50.928;4.440;2024-01-30T08:35:44;13.40;99.90
21246;DHT22;10781;50.928;4.440;2024-01-30T08:38:09;13.50;99.90
21246;DHT22;10781;50.928;4.440;2024-01-30T08:40:37;13.60;99.90
21246;DHT22;10781;50.928;4.440;2024-01-30T08:43:03;13.80;99.90
21246;DHT22;10781;50.928;4.440;2024-01-30T08:45:30;13.90;99.90
21246;DHT22;10781;50.928;4.440;2024-01-30T08:47:56;13.90;99.90
21246;DHT22;10781;50.928;4.440;2024-01-30T08:50:22;13.80;99.90
21246;DHT22;10781;50.928;4.440;2024-01-30T08:52:48;13.70;99.90
21246;DHT22;10781;50.928;4.440;2024-01-30T08:55:13;13.60;99.90
21246;DHT22;10781;50.928;4.440;2024-01-30T08:57:39;13.60;99.90
21246;DHT22;10781;50.928;4.440;2024-01-30T09:00:05;13.60;99.90
21246;DHT22;10781;50.928;4.440;2024-01-30T09:02:32;13.50;99.90
21246;DHT22;10781;50.928;4.440;2024-01-30T09:04:58;13.50;99.90
21246;DHT22;10781;50.928;4.440;2024-01-30T09:07:24;13.60;99.90
21246;DHT22;10781;50.928;4.440;2024-01-30T09:09:49;13.50;99.90
21246;DHT22;10781;50.928;4.440;2024-01-30T09:12:15;13.40;99.90
21246;DHT22;10781;50.928;4.440;2024-01-30T09:14:41;13.40;99.90
21246;DHT22;10781;50.928;4.440;2024-01-30T09:17:07;13.50;99.90
21246;DHT22;10781;50.928;4.440;2024-01-30T09:19:33;13.50;99.90
21246;DHT22;10781;50.928;4.440;2024-01-30T09:21:59;13.30;99.90
21246;DHT22;10781;50.928;4.440;2024-01-30T09:24:26;13.20;99.90
21246;DHT22;10781;50.928;4.440;2024-01-30T09:26:52;13.40;99.90
21246;DHT22;10781;50.928;4.440;2024-01-30T09:29:17;13.40;99.90
21246;DHT22;10781;50.928;4.440;2024-01-30T09:31:45;13.30;99.90
21246;DHT22;10781;50.928;4.440;2024-01-30T09:34:10;13.50;99.90
21246;DHT22;10781;50.928;4.440;2024-01-30T09:36:36;13.40;99.90
21246;DHT22;10781;50.928;4.440;2024-01-30T09:39:02;13.30;99.90
21246;DHT22;10781;50.928;4.440;2024-01-30T09:41:29;13.20;99.90
21246;DHT22;10781;50.928;4.440;2024-01-30T09:43:57;13.20;99.90
21246;DHT22;10781;50.928;4.440;2024-01-30T09:46:27;13.30;99.90
21246;DHT22;10781;50.928;4.440;2024-01-30T09:48:55;13.30;99.90
21246;DHT22;10781;50.928;4.440;2024-01-30T09:51:21;13.10;99.90
21246;DHT22;10781;50.928;4.440;2024-01-30T09:53:48;13.00;99.90
21246;DHT22;10781;50.928;4.440;2024-01-30T09:56:17;13.00;99.90
21246;DHT22;10781;50.928;4.440;2024-01-30T09:58:43;13.10;99.90
21246;DHT22;10781;50.928;4.440;2024-01-30T10:01:09;13.30;99.90
21246;DHT22;10781;50.928;4.440;2024-01-30T10:03:35;12.90;99.90
21246;DHT22;10781;50.928;4.440;2024-01-30T10:06:01;13.00;99.90
21246;DHT22;10781;50.928;4.440;2024-01-30T10:08:27;13.00;99.90
21246;DHT22;10781;50.928;4.440;2024-01-30T10:10:55;13.30;99.90
21246;DHT22;10781;50.928;4.440;2024-01-30T10:13:20;13.40;99.90
21246;DHT22;10781;50.928;4.440;2024-01-30T10:15:47;13.30;99.90
21246;DHT22;10781;50.928;4.440;2024-01-30T10:18:13;13.20;99.90
21246;DHT22;10781;50.928;4.440;2024-01-30T10:20:39;13.30;99.90
21246;DHT22;10781;50.928;4.440;2024-01-30T10:23:04;13.30;99.90
21246;DHT22;10781;50.928;4.440;2024-01-30T10:25:33;13.30;99.90
21246;DHT22;10781;50.928;4.440;2024-01-30T10:27:59;13.10;99.90
21246;DHT22;10781;50.928;4.440;2024-01-30T10:30:25;13.00;99.90
21246;DHT22;10781;50.928;4.440;2024-01-30T10:32:51;12.90;99.90
21246;DHT22;10781;50.928;4.440;2024-01-30T10:35:17;12.90;99.90
21246;DHT22;10781;50.928;4.440;2024-01-30T10:37:47;13.00;99.90
21246;DHT22;10781;50.928;4.440;2024-01-30T10:40:14;13.10;99.90
21246;DHT22;10781;50.928;4.440;2024-01-30T10:42:44;12.90;99.90
21246;DHT22;10781;50.928;4.440;2024-01-30T10:45:13;13.00;99.90
21246;DHT22;10781;50.928;4.440;2024-01-30T10:47:48;12.90;99.90
21246;DHT22;10781;50.928;4.440;2024-01-30T10:50:15;12.80;99.90
21246;DHT22;10781;50.928;4.440;2024-01-30T10:52:41;12.60;99.90
21246;DHT22;10781;50.928;4.440;2024-01-30T10:55:10;12.60;99.90
21246;DHT22;10781;50.928;4.440;2024-01-30T10:57:37;12.60;99.90
21246;DHT22;10781;50.928;4.440;2024-01-30T11:00:11;12.70;99.90
21246;DHT22;10781;50.928;4.440;2024-01-30T11:02:45;12.70;99.90
21246;DHT22;10781;50.928;4.440;2024-01-30T11:05:12;12.80;99.90
21246;DHT22;10781;50.928;4.440;2024-01-30T11:07:39;12.60;99.90
21246;DHT22;10781;50.928;4.440;2024-01-30T11:10:06;12.50;99.90
21246;DHT22;10781;50.928;4.440;2024-01-30T11:12:39;12.30;99.90
21246;DHT22;10781;50.928;4.440;2024-01-30T11:15:13;12.30;99.90
21246;DHT22;10781;50.928;4.440;2024-01-30T11:20:27;12.20;99.90
21246;DHT22;10781;50.928;4.440;2024-01-30T11:22:56;12.20;99.90
21246;DHT22;10781;50.928;4.440;2024-01-30T11:25:23;12.20;99.90
21246;DHT22;10781;50.928;4.440;2024-01-30T11:27:51;12.20;99.90
21246;DHT22;10781;50.928;4.440;2024-01-30T11:30:36;12.00;99.90
21246;DHT22;10781;50.928;4.440;2024-01-30T11:33:05;11.90;99.90
21246;DHT22;10781;50.928;4.440;2024-01-30T11:35:35;12.10;99.90
21246;DHT22;10781;50.928;4.440;2024-01-30T11:38:02;12.20;99.90
21246;DHT22;10781;50.928;4.440;2024-01-30T11:40:29;12.10;99.90
21246;DHT22;10781;50.928;4.440;2024-01-30T11:42:56;12.20;99.90
21246;DHT22;10781;50.928;4.440;2024-01-30T11:45:23;12.20;99.90
21246;DHT22;10781;50.928;4.440;2024-01-30T11:47:49;12.00;99.90
21246;DHT22;10781;50.928;4.440;2024-01-30T11:50:15;11.90;99.90
21246;DHT22;10781;50.928;4.440;2024-01-30T11:52:40;12.10;99.90
21246;DHT22;10781;50.928;4.440;2024-01-30T11:55:07;12.30;99.90
21246;DHT22;10781;50.928;4.440;2024-01-30T11:57:33;12.50;99.90
21246;DHT22;10781;50.928;4.440;2024-01-30T12:00:01;12.60;99.90
21246;DHT22;10781;50.928;4.440;2024-01-30T12:02:29;12.60;99.90
21246;DHT22;10781;50.928;4.440;2024-01-30T12:04:55;12.50;99.90
21246;DHT22;10781;50.928;4.440;2024-01-30T12:07:21;12.40;99.90
21246;DHT22;10781;50.928;4.440;2024-01-30T12:09:53;12.30;99.90
21246;DHT22;10781;50.928;4.440;2024-01-30T12:12:22;12.30;99.90
21246;DHT22;10781;50.928;4.440;2024-01-30T12:14:48;12.40;99.90
21246;DHT22;10781;50.928;4.440;2024-01-30T12:17:24;12.50;99.90
21246;DHT22;10781;50.928;4.440;2024-01-30T12:19:50;12.50;99.90
21246;DHT22;10781;50.928;4.440;2024-01-30T12:22:15;12.40;99.90
21246;DHT22;10781;50.928;4.440;2024-01-30T12:24:41;12.50;99.90
21246;DHT22;10781;50.928;4.440;2024-01-30T12:27:07;12.30;99.90
21246;DHT22;10781;50.928;4.440;2024-01-30T12:29:33;12.30;99.90
21246;DHT22;10781;50.928;4.440;2024-01-30T12:31:59;12.50;99.90
21246;DHT22;10781;50.928;4.440;2024-01-30T12:34:25;12.70;99.90
21246;DHT22;10781;50.928;4.440;2024-01-30T12:36:51;12.80;99.90
21246;DHT22;10781;50.928;4.440;2024-01-30T12:39:16;12.70;99.90
21246;DHT22;10781;50.928;4.440;2024-01-30T12:41:42;12.80;99.90
21246;DHT22;10781;50.928;4.440;2024-01-30T12:44:08;12.80;99.90
21246;DHT22;10781;50.928;4.440;2024-01-30T12:46:37;12.80;99.90
21246;DHT22;10781;50.928;4.440;2024-01-30T12:49:02;12.70;99.90
21246;DHT22;10781;50.928;4.440;2024-01-30T12:51:28;12.50;99.90
21246;DHT22;10781;50.928;4.440;2024-01-30T12:53:54;12.10;99.90
21246;DHT22;10781;50.928;4.440;2024-01-30T12:56:20;11.90;99.90
21246;DHT22;10781;50.928;4.440;2024-01-30T12:58:46;11.80;99.90
21246;DHT22;10781;50.928;4.440;2024-01-30T13:01:12;11.50;99.90
21246;DHT22;10781;50.928;4.440;2024-01-30T13:03:37;11.50;99.90
21246;DHT22;10781;50.928;4.440;2024-01-30T13:06:03;11.60;99.90
21246;DHT22;10781;50.928;4.440;2024-01-30T13:08:29;11.70;99.90
21246;DHT22;10781;50.928;4.440;2024-01-30T13:10:54;11.90;99.90
21246;DHT22;10781;50.928;4.440;2024-01-30T13:13:20;12.10;99.90
21246;DHT22;10781;50.928;4.440;2024-01-30T13:15:46;12.20;99.90
21246;DHT22;10781;50.928;4.440;2024-01-30T13:18:11;12.40;99.90
21246;DHT22;10781;50.928;4.440;2024-01-30T13:20:37;12.60;99.90
21246;DHT22;10781;50.928;4.440;2024-01-30T13:23:03;12.70;99.90
21246;DHT22;10781;50.928;4.440;2024-01-30T13:25:28;12.80;99.90
21246;DHT22;10781;50.928;4.440;2024-01-30T13:27:54;13.00;99.90
21246;DHT22;10781;50.928;4.440;2024-01-30T13:30:20;13.20;99.90
21246;DHT22;10781;50.928;4.440;2024-01-30T13:32:45;13.10;99.90
21246;DHT22;10781;50.928;4.440;2024-01-30T13:35:11;13.30;99.90
21246;DHT22;10781;50.928;4.440;2024-01-30T13:37:37;13.10;99.90
21246;DHT22;10781;50.928;4.440;2024-01-30T13:40:05;12.80;99.90
21246;DHT22;10781;50.928;4.440;2024-01-30T13:42:32;12.80;99.90
21246;DHT22;10781;50.928;4.440;2024-01-30T13:44:58;12.50;99.90
21246;DHT22;10781;50.928;4.440;2024-01-30T13:47:24;12.30;99.90
21246;DHT22;10781;50.928;4.440;2024-01-30T13:49:50;12.30;99.90
21246;DHT22;10781;50.928;4.440;2024-01-30T13:52:18;12.40;99.90
21246;DHT22;10781;50.928;4.440;2024-01-30T13:54:43;12.50;99.90
21246;DHT22;10781;50.928;4.440;2024-01-30T13:57:09;12.40;99.90
21246;DHT22;10781;50.928;4.440;2024-01-30T13:59:35;12.40;99.90
21246;DHT22;10781;50.928;4.440;2024-01-30T14:02:00;12.30;99.90
21246;DHT22;10781;50.928;4.440;2024-01-30T14:04:26;12.20;99.90
21246;DHT22;10781;50.928;4.440;2024-01-30T14:06:51;12.20;99.90
21246;DHT22;10781;50.928;4.440;2024-01-30T14:09:17;12.20;99.90
21246;DHT22;10781;50.928;4.440;2024-01-30T14:11:43;12.20;99.90
21246;DHT22;10781;50.928;4.440;2024-01-30T14:14:09;12.00;99.90
21246;DHT22;10781;50.928;4.440;2024-01-30T14:16:34;12.00;99.90
21246;DHT22;10781;50.928;4.440;2024-01-30T14:19:00;11.80;99.90
21246;DHT22;10781;50.928;4.440;2024-01-30T14:21:26;11.70;99.90
21246;DHT22;10781;50.928;4.440;2024-01-30T14:23:51;11.60;99.90
21246;DHT22;10781;50.928;4.440;2024-01-30T14:26:17;11.70;99.90
21246;DHT22;10781;50.928;4.440;2024-01-30T14:28:43;11.60;99.90
21246;DHT22;10781;50.928;4.440;2024-01-30T14:31:11;11.60;99.90
21246;DHT22;10781;50.928;4.440;2024-01-30T14:33:37;11.70;99.90
21246;DHT22;10781;50.928;4.440;2024-01-30T14:36:02;11.60;99.90
21246;DHT22;10781;50.928;4.440;2024-01-30T14:38:28;11.60;99.90
21246;DHT22;10781;50.928;4.440;2024-01-30T14:40:54;11.50;99.90
21246;DHT22;10781;50.928;4.440;2024-01-30T14:43:19;11.40;99.90
21246;DHT22;10781;50.928;4.440;2024-01-30T14:45:45;11.20;99.90
21246;DHT22;10781;50.928;4.440;2024-01-30T14:48:14;11.20;99.90
21246;DHT22;10781;50.928;4.440;2024-01-30T14:50:40;11.10;99.90
21246;DHT22;10781;50.928;4.440;2024-01-30T14:53:05;11.20;99.90
21246;DHT22;10781;50.928;4.440;2024-01-30T14:55:31;11.20;99.90
21246;DHT22;10781;50.928;4.440;2024-01-30T14:57:57;11.10;99.90
21246;DHT22;10781;50.928;4.440;2024-01-30T15:00:24;11.20;99.90
21246;DHT22;10781;50.928;4.440;2024-01-30T15:02:50;11.20;99.90
21246;DHT22;10781;50.928;4.440;2024-01-30T15:05:15;11.20;99.90
21246;DHT22;10781;50.928;4.440;2024-01-30T15:07:41;11.10;99.90
21246;DHT22;10781;50.928;4.440;2024-01-30T15:10:08;10.90;99.90
21246;DHT22;10781;50.928;4.440;2024-01-30T15:12:34;10.90;99.90
21246;DHT22;10781;50.928;4.440;2024-01-30T15:14:59;11.00;99.90
21246;DHT22;10781;50.928;4.440;2024-01-30T15:17:25;10.90;99.90
21246;DHT22;10781;50.928;4.440;2024-01-30T15:19:51;10.90;99.90
21246;DHT22;10781;50.928;4.440;2024-01-30T15:22:17;10.90;99.90
21246;DHT22;10781;50.928;4.440;2024-01-30T15:24:43;10.90;99.90
21246;DHT22;10781;50.928;4.440;2024-01-30T15:27:08;11.00;99.90